createdAt,value
2018-01-13T01:36:48.424Z,1028.46
2018-01-13T01:36:48.996Z,1028.41
2018-01-13T01:36:49.595Z,1028.50
2018-01-13T01:36:50.196Z,1028.46
2018-01-13T01:36:50.795Z,1028.45
2018-01-13T01:36:51.395Z,1028.45
2018-01-13T01:36:51.994Z,1028.47
2018-01-13T01:36:52.595Z,1028.49
2018-01-13T01:37:46.079Z,1028.48
2018-01-13T01:37:46.653Z,1028.48
2018-01-13T01:37:47.249Z,1028.46
2018-01-13T01:37:47.848Z,1028.46
2018-01-13T01:37:48.448Z,1028.50
2018-01-13T01:37:49.049Z,1028.50
2018-01-13T01:37:49.648Z,1028.49
2018-01-13T01:37:50.247Z,1028.49
2018-01-13T01:38:43.733Z,1028.48
2018-01-13T01:38:44.302Z,1028.43
2018-01-13T01:38:44.901Z,1028.50
2018-01-13T01:38:45.500Z,1028.49
2018-01-13T01:38:46.101Z,1028.49
2018-01-13T01:38:46.700Z,1028.46
2018-01-13T01:38:47.300Z,1028.49
2018-01-13T01:38:47.901Z,1028.48
2018-01-13T01:39:42.404Z,1028.46
2018-01-13T01:39:42.988Z,1028.48
2018-01-13T01:39:43.576Z,1028.46
2018-01-13T01:39:44.177Z,1028.46
2018-01-13T01:39:44.776Z,1028.47
2018-01-13T01:39:45.377Z,1028.48
2018-01-13T01:39:45.975Z,1028.49
2018-01-13T01:39:46.576Z,1028.48
2018-01-13T01:40:41.082Z,1028.47
2018-01-13T01:40:41.653Z,1028.49
2018-01-13T01:40:42.255Z,1028.45
2018-01-13T01:40:42.852Z,1028.48
2018-01-13T01:40:43.453Z,1028.45
2018-01-13T01:40:44.055Z,1028.46
2018-01-13T01:40:44.652Z,1028.49
2018-01-13T01:40:45.252Z,1028.45
2018-01-13T01:41:38.733Z,1028.49
2018-01-13T01:41:39.314Z,1028.47
2018-01-13T01:41:39.905Z,1028.47
2018-01-13T01:41:40.509Z,1028.49
2018-01-13T01:41:41.105Z,1028.46
2018-01-13T01:41:41.706Z,1028.51
2018-01-13T01:41:42.317Z,1028.51
2018-01-13T01:41:42.905Z,1028.50
2018-01-13T01:42:36.386Z,1028.51
2018-01-13T01:42:36.961Z,1028.46
2018-01-13T01:42:37.557Z,1028.49
2018-01-13T01:42:38.157Z,1028.48
2018-01-13T01:42:38.756Z,1028.46
2018-01-13T01:42:39.356Z,1028.49
2018-01-13T01:42:39.958Z,1028.51
2018-01-13T01:42:40.557Z,1028.49
2018-01-13T01:43:35.062Z,1028.52
2018-01-13T01:43:35.644Z,1028.55
2018-01-13T01:43:36.233Z,1028.50
2018-01-13T01:43:36.831Z,1028.52
2018-01-13T01:43:37.433Z,1028.52
2018-01-13T01:43:38.034Z,1028.49
2018-01-13T01:43:38.636Z,1028.52
2018-01-13T01:43:39.239Z,1028.49
2018-01-13T01:44:33.739Z,1028.52
2018-01-13T01:44:34.309Z,1028.55
2018-01-13T01:44:34.909Z,1028.51
2018-01-13T01:44:35.510Z,1028.51
2018-01-13T01:44:36.108Z,1028.52
2018-01-13T01:44:36.708Z,1028.49
2018-01-13T01:44:37.307Z,1028.47
2018-01-13T01:44:37.907Z,1028.52
2018-01-13T01:45:32.411Z,1028.52
2018-01-13T01:45:32.985Z,1028.52
2018-01-13T01:45:33.585Z,1028.56
2018-01-13T01:45:34.185Z,1028.57
2018-01-13T01:45:34.784Z,1028.50
2018-01-13T01:45:35.401Z,1028.54
2018-01-13T01:45:35.984Z,1028.52
2018-01-13T01:45:36.584Z,1028.52
2018-01-13T01:46:31.088Z,1028.47
2018-01-13T01:46:31.660Z,1028.42
2018-01-13T01:46:32.260Z,1028.46
2018-01-13T01:46:32.861Z,1028.45
2018-01-13T01:46:33.475Z,1028.43
2018-01-13T01:46:34.059Z,1028.46
2018-01-13T01:46:34.660Z,1028.51
2018-01-13T01:46:35.261Z,1028.46
2018-01-13T01:47:28.743Z,1028.50
2018-01-13T01:47:29.313Z,1028.49
2018-01-13T01:47:29.914Z,1028.50
2018-01-13T01:47:30.512Z,1028.49
2018-01-13T01:47:31.113Z,1028.46
2018-01-13T01:47:31.715Z,1028.46
2018-01-13T01:47:32.312Z,1028.47
2018-01-13T01:47:32.911Z,1028.48
2018-01-13T01:48:26.392Z,1028.47
2018-01-13T01:48:26.964Z,1028.41
2018-01-13T01:48:27.564Z,1028.44
2018-01-13T01:48:28.164Z,1028.45
2018-01-13T01:48:28.765Z,1028.44
2018-01-13T01:48:29.364Z,1028.45
2018-01-13T01:48:29.964Z,1028.47
2018-01-13T01:48:30.563Z,1028.47
2018-01-13T01:49:25.068Z,1028.46
2018-01-13T01:49:25.640Z,1028.48
2018-01-13T01:49:26.239Z,1028.47
2018-01-13T01:49:26.840Z,1028.48
2018-01-13T01:49:27.439Z,1028.47
2018-01-13T01:49:28.038Z,1028.46
2018-01-13T01:49:28.638Z,1028.48
2018-01-13T01:49:29.245Z,1028.46
2018-01-13T01:50:22.721Z,1028.46
2018-01-13T01:50:23.295Z,1028.48
2018-01-13T01:50:23.893Z,1028.48
2018-01-13T01:50:24.492Z,1028.46
2018-01-13T01:50:25.093Z,1028.47
2018-01-13T01:50:25.691Z,1028.45
2018-01-13T01:50:26.292Z,1028.49
2018-01-13T01:50:26.890Z,1028.45
2018-01-13T01:51:21.396Z,1028.43
2018-01-13T01:51:21.967Z,1028.40
2018-01-13T01:51:22.566Z,1028.38
2018-01-13T01:51:23.167Z,1028.42
2018-01-13T01:51:23.770Z,1028.42
2018-01-13T01:51:24.366Z,1028.44
2018-01-13T01:51:24.965Z,1028.46
2018-01-13T01:51:25.567Z,1028.45
2018-01-13T01:52:20.072Z,1028.47
2018-01-13T01:52:20.644Z,1028.44
2018-01-13T01:52:21.245Z,1028.45
2018-01-13T01:52:21.843Z,1028.48
2018-01-13T01:52:22.446Z,1028.48
2018-01-13T01:52:23.044Z,1028.44
2018-01-13T01:52:23.648Z,1028.49
2018-01-13T01:52:24.240Z,1028.49
2018-01-13T01:53:17.722Z,1028.48
2018-01-13T01:53:18.297Z,1028.45
2018-01-13T01:53:18.895Z,1028.46
2018-01-13T01:53:19.494Z,1028.43
2018-01-13T01:53:20.096Z,1028.43
2018-01-13T01:53:20.694Z,1028.48
2018-01-13T01:53:21.294Z,1028.46
2018-01-13T01:53:21.893Z,1028.47
2018-01-13T01:54:16.399Z,1028.47
2018-01-13T01:54:16.971Z,1028.48
2018-01-13T01:54:17.569Z,1028.49
2018-01-13T01:54:18.169Z,1028.51
2018-01-13T01:54:18.769Z,1028.48
2018-01-13T01:54:19.384Z,1028.47
2018-01-13T01:54:19.968Z,1028.48
2018-01-13T01:54:20.569Z,1028.50
2018-01-13T01:55:15.080Z,1028.48
2018-01-13T01:55:15.647Z,1028.51
2018-01-13T01:55:16.246Z,1028.44
2018-01-13T01:55:16.845Z,1028.50
2018-01-13T01:55:17.446Z,1028.49
2018-01-13T01:55:18.046Z,1028.49
2018-01-13T01:55:18.645Z,1028.51
2018-01-13T01:55:19.245Z,1028.49
2018-01-13T01:56:12.728Z,1028.52
2018-01-13T01:56:13.299Z,1028.51
2018-01-13T01:56:13.898Z,1028.51
2018-01-13T01:56:14.499Z,1028.52
2018-01-13T01:56:15.143Z,1028.50
2018-01-13T01:56:15.696Z,1028.49
2018-01-13T01:56:16.298Z,1028.49
2018-01-13T01:56:16.897Z,1028.51
2018-01-13T01:57:10.380Z,1028.48
2018-01-13T01:57:10.950Z,1028.50
2018-01-13T01:57:11.550Z,1028.48
2018-01-13T01:57:12.151Z,1028.49
2018-01-13T01:57:12.750Z,1028.48
2018-01-13T01:57:13.349Z,1028.49
2018-01-13T01:57:13.949Z,1028.49
2018-01-13T01:57:14.549Z,1028.52
2018-01-13T01:58:08.030Z,1028.50
2018-01-13T01:58:08.601Z,1028.51
2018-01-13T01:58:09.201Z,1028.53
2018-01-13T01:58:09.801Z,1028.51
2018-01-13T01:58:10.402Z,1028.51
2018-01-13T01:58:11.005Z,1028.44
2018-01-13T01:58:11.601Z,1028.53
2018-01-13T01:58:12.200Z,1028.51
2018-01-13T01:59:05.681Z,1028.47
2018-01-13T01:59:06.254Z,1028.42
2018-01-13T01:59:06.854Z,1028.47
2018-01-13T01:59:07.453Z,1028.46
2018-01-13T01:59:08.055Z,1028.49
2018-01-13T01:59:08.654Z,1028.52
2018-01-13T01:59:09.256Z,1028.47
2018-01-13T01:59:09.854Z,1028.47
2018-01-13T02:00:03.332Z,1028.51
2018-01-13T02:00:03.906Z,1028.48
2018-01-13T02:00:04.505Z,1028.44
2018-01-13T02:00:05.105Z,1028.52
2018-01-13T02:00:05.705Z,1028.50
2018-01-13T02:00:06.312Z,1028.50
2018-01-13T02:00:06.905Z,1028.49
2018-01-13T02:00:07.507Z,1028.47
2018-01-13T02:01:00.986Z,1028.49
2018-01-13T02:01:01.559Z,1028.47
2018-01-13T02:01:02.158Z,1028.48
2018-01-13T02:01:02.759Z,1028.49
2018-01-13T02:01:03.358Z,1028.51
2018-01-13T02:01:03.957Z,1028.53
2018-01-13T02:01:04.560Z,1028.54
2018-01-13T02:01:05.155Z,1028.50
2018-01-13T02:01:58.724Z,1028.50
2018-01-13T02:01:59.229Z,1028.48
2018-01-13T02:01:59.827Z,1028.43
2018-01-13T02:02:00.428Z,1028.46
2018-01-13T02:02:01.026Z,1028.47
2018-01-13T02:02:01.630Z,1028.51
2018-01-13T02:02:02.237Z,1028.48
2018-01-13T02:02:02.827Z,1028.48
2018-01-13T02:02:57.311Z,1028.47
2018-01-13T02:02:57.884Z,1028.47
2018-01-13T02:02:58.483Z,1028.50
2018-01-13T02:02:59.082Z,1028.46
2018-01-13T02:02:59.682Z,1028.51
2018-01-13T02:03:00.281Z,1028.50
2018-01-13T02:03:00.885Z,1028.49
2018-01-13T02:03:01.480Z,1028.52
2018-01-13T02:03:54.963Z,1028.47
2018-01-13T02:03:55.536Z,1028.47
2018-01-13T02:03:56.140Z,1028.47
2018-01-13T02:03:56.736Z,1028.47
2018-01-13T02:03:57.335Z,1028.46
2018-01-13T02:03:57.937Z,1028.41
2018-01-13T02:03:58.536Z,1028.46
2018-01-13T02:03:59.135Z,1028.46
2018-01-13T02:04:52.615Z,1028.46
2018-01-13T02:04:53.188Z,1028.47
2018-01-13T02:04:53.789Z,1028.48
2018-01-13T02:04:54.387Z,1028.43
2018-01-13T02:04:54.989Z,1028.47
2018-01-13T02:04:55.591Z,1028.47
2018-01-13T02:04:56.188Z,1028.46
2018-01-13T02:04:56.787Z,1028.46
2018-01-13T02:05:50.267Z,1028.45
2018-01-13T02:05:50.842Z,1028.42
2018-01-13T02:05:51.442Z,1028.44
2018-01-13T02:05:52.040Z,1028.41
2018-01-13T02:05:52.640Z,1028.43
2018-01-13T02:05:53.240Z,1028.44
2018-01-13T02:05:53.839Z,1028.44
2018-01-13T02:05:54.438Z,1028.41
2018-01-13T02:06:47.924Z,1028.44
2018-01-13T02:06:48.491Z,1028.43
2018-01-13T02:06:49.090Z,1028.40
2018-01-13T02:06:49.692Z,1028.44
2018-01-13T02:06:50.293Z,1028.45
2018-01-13T02:06:50.891Z,1028.45
2018-01-13T02:06:51.491Z,1028.47
2018-01-13T02:06:52.089Z,1028.45
2018-01-13T02:07:45.574Z,1028.37
2018-01-13T02:07:46.145Z,1028.38
2018-01-13T02:07:46.743Z,1028.39
2018-01-13T02:07:47.344Z,1028.38
2018-01-13T02:07:47.946Z,1028.42
2018-01-13T02:07:48.543Z,1028.41
2018-01-13T02:07:49.142Z,1028.36
2018-01-13T02:07:49.742Z,1028.41
2018-01-13T02:08:43.740Z,1028.42
2018-01-13T02:08:44.335Z,1028.41
2018-01-13T02:08:44.906Z,1028.43
2018-01-13T02:08:45.504Z,1028.43
2018-01-13T02:08:46.105Z,1028.46
2018-01-13T02:08:46.707Z,1028.45
2018-01-13T02:08:47.305Z,1028.41
2018-01-13T02:09:41.807Z,1028.44
2018-01-13T02:09:42.392Z,1028.42
2018-01-13T02:09:42.967Z,1028.45
2018-01-13T02:09:43.567Z,1028.44
2018-01-13T02:09:44.170Z,1028.39
2018-01-13T02:09:44.766Z,1028.41
2018-01-13T02:09:45.365Z,1028.42
2018-01-13T02:09:45.967Z,1028.43
2018-01-13T02:10:39.447Z,1028.44
2018-01-13T02:10:40.020Z,1028.42
2018-01-13T02:10:40.620Z,1028.42
2018-01-13T02:10:41.220Z,1028.41
2018-01-13T02:10:41.820Z,1028.43
2018-01-13T02:10:42.428Z,1028.42
2018-01-13T02:10:43.104Z,1028.42
2018-01-13T02:10:43.617Z,1028.41
2018-01-13T02:11:38.122Z,1028.41
2018-01-13T02:11:38.700Z,1028.43
2018-01-13T02:11:39.296Z,1028.42
2018-01-13T02:11:39.894Z,1028.39
2018-01-13T02:11:40.522Z,1028.40
2018-01-13T02:11:41.131Z,1028.38
2018-01-13T02:11:41.693Z,1028.43
2018-01-13T02:11:42.292Z,1028.41
2018-01-13T02:12:35.773Z,1028.41
2018-01-13T02:12:36.347Z,1028.39
2018-01-13T02:12:36.946Z,1028.44
2018-01-13T02:12:37.578Z,1028.42
2018-01-13T02:12:38.147Z,1028.45
2018-01-13T02:12:38.747Z,1028.40
2018-01-13T02:12:39.346Z,1028.42
2018-01-13T02:12:39.945Z,1028.42
2018-01-13T02:13:34.963Z,1028.41
2018-01-13T02:13:35.533Z,1028.39
2018-01-13T02:13:36.133Z,1028.40
2018-01-13T02:13:36.733Z,1028.39
2018-01-13T02:13:37.333Z,1028.41
2018-01-13T02:13:37.933Z,1028.39
2018-01-13T02:13:38.532Z,1028.38
2018-01-13T02:14:32.616Z,1028.40
2018-01-13T02:14:33.188Z,1028.43
2018-01-13T02:14:33.786Z,1028.40
2018-01-13T02:14:34.393Z,1028.37
2018-01-13T02:14:34.984Z,1028.45
2018-01-13T02:14:35.586Z,1028.40
2018-01-13T02:14:36.186Z,1028.40
2018-01-13T02:15:34.668Z,1028.41
2018-01-13T02:15:35.243Z,1028.40
2018-01-13T02:15:35.840Z,1028.43
2018-01-13T02:15:37.311Z,1028.42
2018-01-13T02:15:37.688Z,1028.42
2018-01-13T02:15:38.284Z,1028.40
2018-01-13T02:15:38.886Z,1028.43
2018-01-13T02:16:32.424Z,1028.43
2018-01-13T02:16:32.997Z,1028.43
2018-01-13T02:16:33.596Z,1028.43
2018-01-13T02:16:34.196Z,1028.38
2018-01-13T02:16:34.794Z,1028.42
2018-01-13T02:16:35.395Z,1028.39
2018-01-13T02:16:35.996Z,1028.42
2018-01-13T02:16:36.593Z,1028.44
2018-01-13T02:17:30.176Z,1028.36
2018-01-13T02:17:30.749Z,1028.36
2018-01-13T02:17:31.348Z,1028.40
2018-01-13T02:17:31.947Z,1028.37
2018-01-13T02:17:32.548Z,1028.36
2018-01-13T02:17:33.146Z,1028.37
2018-01-13T02:17:33.746Z,1028.37
2018-01-13T02:17:34.345Z,1028.35
2018-01-13T02:18:27.829Z,1028.37
2018-01-13T02:18:28.402Z,1028.40
2018-01-13T02:18:29.000Z,1028.37
2018-01-13T02:18:29.600Z,1028.39
2018-01-13T02:18:30.202Z,1028.35
2018-01-13T02:18:30.802Z,1028.39
2018-01-13T02:18:31.400Z,1028.37
2018-01-13T02:18:32.001Z,1028.34
2018-01-13T02:19:25.481Z,1028.36
2018-01-13T02:19:26.054Z,1028.37
2018-01-13T02:19:26.651Z,1028.37
2018-01-13T02:19:27.252Z,1028.38
2018-01-13T02:19:27.855Z,1028.42
2018-01-13T02:19:28.452Z,1028.39
2018-01-13T02:19:29.051Z,1028.39
2018-01-13T02:19:29.653Z,1028.42
2018-01-13T02:20:24.156Z,1028.36
2018-01-13T02:20:24.727Z,1028.39
2018-01-13T02:20:25.327Z,1028.37
2018-01-13T02:20:25.926Z,1028.32
2018-01-13T02:20:26.526Z,1028.36
2018-01-13T02:20:27.128Z,1028.37
2018-01-13T02:20:27.728Z,1028.37
2018-01-13T02:20:28.325Z,1028.37
2018-01-13T02:21:22.830Z,1028.36
2018-01-13T02:21:23.405Z,1028.40
2018-01-13T02:21:24.010Z,1028.40
2018-01-13T02:21:24.603Z,1028.38
2018-01-13T02:21:25.203Z,1028.38
2018-01-13T02:21:25.801Z,1028.36
2018-01-13T02:21:26.404Z,1028.40
2018-01-13T02:21:27.003Z,1028.38
2018-01-13T02:22:21.507Z,1028.41
2018-01-13T02:22:22.080Z,1028.36
2018-01-13T02:22:22.681Z,1028.37
2018-01-13T02:22:23.278Z,1028.36
2018-01-13T02:22:23.878Z,1028.39
2018-01-13T02:22:24.479Z,1028.38
2018-01-13T02:22:25.078Z,1028.37
2018-01-13T02:22:25.679Z,1028.37
2018-01-13T02:23:19.167Z,1028.34
2018-01-13T02:23:19.737Z,1028.33
2018-01-13T02:23:20.331Z,1028.36
2018-01-13T02:23:20.930Z,1028.40
2018-01-13T02:23:21.531Z,1028.38
2018-01-13T02:23:22.130Z,1028.38
2018-01-13T02:23:22.730Z,1028.36
2018-01-13T02:23:23.328Z,1028.37
2018-01-13T02:24:16.812Z,1028.39
2018-01-13T02:24:17.385Z,1028.40
2018-01-13T02:24:17.983Z,1028.42
2018-01-13T02:24:18.584Z,1028.38
2018-01-13T02:24:19.181Z,1028.38
2018-01-13T02:24:19.780Z,1028.40
2018-01-13T02:24:20.382Z,1028.38
2018-01-13T02:24:20.980Z,1028.37
2018-01-13T02:25:15.486Z,1028.40
2018-01-13T02:25:16.060Z,1028.44
2018-01-13T02:25:16.659Z,1028.43
2018-01-13T02:25:17.256Z,1028.42
2018-01-13T02:25:17.857Z,1028.40
2018-01-13T02:25:18.456Z,1028.40
2018-01-13T02:25:19.056Z,1028.38
2018-01-13T02:25:19.655Z,1028.42
2018-01-13T02:26:14.161Z,1028.43
2018-01-13T02:26:14.736Z,1028.42
2018-01-13T02:26:15.333Z,1028.44
2018-01-13T02:26:15.933Z,1028.42
2018-01-13T02:26:16.532Z,1028.41
2018-01-13T02:26:17.134Z,1028.41
2018-01-13T02:26:17.732Z,1028.39
2018-01-13T02:26:18.331Z,1028.45
2018-01-13T02:27:12.836Z,1028.39
2018-01-13T02:27:13.409Z,1028.39
2018-01-13T02:27:14.009Z,1028.37
2018-01-13T02:27:14.609Z,1028.38
2018-01-13T02:27:15.211Z,1028.40
2018-01-13T02:27:15.809Z,1028.42
2018-01-13T02:27:16.407Z,1028.39
2018-01-13T02:27:17.008Z,1028.35
2018-01-13T02:28:10.489Z,1028.45
2018-01-13T02:28:11.063Z,1028.42
2018-01-13T02:28:11.660Z,1028.42
2018-01-13T02:28:12.261Z,1028.42
2018-01-13T02:28:12.862Z,1028.44
2018-01-13T02:28:13.464Z,1028.41
2018-01-13T02:28:14.063Z,1028.41
2018-01-13T02:28:14.660Z,1028.42
2018-01-13T02:29:08.141Z,1028.40
2018-01-13T02:29:08.713Z,1028.38
2018-01-13T02:29:09.313Z,1028.38
2018-01-13T02:29:09.913Z,1028.40
2018-01-13T02:29:10.512Z,1028.39
2018-01-13T02:29:11.113Z,1028.36
2018-01-13T02:29:11.713Z,1028.40
2018-01-13T02:29:12.312Z,1028.40
2018-01-13T02:30:05.883Z,1028.43
2018-01-13T02:30:06.389Z,1028.42
2018-01-13T02:30:06.987Z,1028.35
2018-01-13T02:30:07.589Z,1028.39
2018-01-13T02:30:08.186Z,1028.42
2018-01-13T02:30:08.786Z,1028.44
2018-01-13T02:30:09.386Z,1028.42
2018-01-13T02:30:09.985Z,1028.44
2018-01-13T02:31:03.555Z,1028.41
2018-01-13T02:31:04.120Z,1028.39
2018-01-13T02:31:04.721Z,1028.38
2018-01-13T02:31:05.319Z,1028.41
2018-01-13T02:31:05.919Z,1028.37
2018-01-13T02:31:06.520Z,1028.42
2018-01-13T02:31:07.119Z,1028.40
2018-01-13T02:31:07.719Z,1028.42
2018-01-13T02:32:01.199Z,1028.37
2018-01-13T02:32:01.772Z,1028.39
2018-01-13T02:32:02.370Z,1028.40
2018-01-13T02:32:02.970Z,1028.42
2018-01-13T02:32:03.577Z,1028.40
2018-01-13T02:32:04.173Z,1028.40
2018-01-13T02:32:04.771Z,1028.39
2018-01-13T02:32:05.372Z,1028.39
2018-01-13T02:32:59.875Z,1028.45
2018-01-13T02:33:00.446Z,1028.44
2018-01-13T02:33:01.046Z,1028.42
2018-01-13T02:33:01.647Z,1028.41
2018-01-13T02:33:02.244Z,1028.46
2018-01-13T02:33:02.846Z,1028.37
2018-01-13T02:33:03.446Z,1028.42
2018-01-13T02:33:04.051Z,1028.42
2018-01-13T02:33:57.576Z,1028.40
2018-01-13T02:33:58.202Z,1028.36
2018-01-13T02:33:58.698Z,1028.40
2018-01-13T02:33:59.296Z,1028.42
2018-01-13T02:33:59.895Z,1028.40
2018-01-13T02:34:00.498Z,1028.40
2018-01-13T02:34:01.096Z,1028.40
2018-01-13T02:34:01.695Z,1028.44
2018-01-13T02:52:35.844Z,1028.27
2018-01-13T02:52:36.411Z,1028.27
2018-01-13T02:52:37.013Z,1028.31
2018-01-13T02:52:37.610Z,1028.29
2018-01-13T02:52:38.212Z,1028.29
2018-01-13T02:52:38.814Z,1028.28
2018-01-13T02:52:39.409Z,1028.26
2018-01-13T02:52:40.012Z,1028.28
2018-01-13T02:53:33.494Z,1028.26
2018-01-13T02:53:34.064Z,1028.25
2018-01-13T02:53:34.664Z,1028.25
2018-01-13T02:53:35.262Z,1028.30
2018-01-13T02:53:35.863Z,1028.27
2018-01-13T02:53:36.464Z,1028.26
2018-01-13T02:53:37.063Z,1028.27
2018-01-13T02:53:37.663Z,1028.28
2018-01-13T02:54:32.168Z,1028.26
2018-01-13T02:54:32.741Z,1028.24
2018-01-13T02:54:33.339Z,1028.21
2018-01-13T02:54:33.944Z,1028.24
2018-01-13T02:54:34.540Z,1028.28
2018-01-13T02:54:35.139Z,1028.24
2018-01-13T02:54:35.800Z,1028.26
2018-01-13T02:54:36.339Z,1028.27
2018-01-13T02:55:30.866Z,1028.22
2018-01-13T02:55:31.417Z,1028.18
2018-01-13T02:55:32.016Z,1028.19
2018-01-13T02:55:32.614Z,1028.23
2018-01-13T02:55:33.215Z,1028.18
2018-01-13T02:55:33.817Z,1028.21
2018-01-13T02:55:34.414Z,1028.19
2018-01-13T02:55:35.014Z,1028.23
2018-01-13T02:56:29.527Z,1028.28
2018-01-13T02:56:30.096Z,1028.21
2018-01-13T02:56:30.691Z,1028.24
2018-01-13T02:56:31.293Z,1028.22
2018-01-13T02:56:31.891Z,1028.23
2018-01-13T02:56:32.491Z,1028.26
2018-01-13T02:56:33.091Z,1028.25
2018-01-13T02:56:33.690Z,1028.23
2018-01-13T02:57:28.198Z,1028.18
2018-01-13T02:57:28.770Z,1028.20
2018-01-13T02:57:29.368Z,1028.18
2018-01-13T02:57:29.968Z,1028.18
2018-01-13T02:57:30.567Z,1028.22
2018-01-13T02:57:31.172Z,1028.19
2018-01-13T02:57:31.766Z,1028.20
2018-01-13T02:57:32.367Z,1028.22
2018-01-13T02:58:25.849Z,1028.20
2018-01-13T02:58:26.421Z,1028.22
2018-01-13T02:58:27.020Z,1028.26
2018-01-13T02:58:27.622Z,1028.23
2018-01-13T02:58:28.220Z,1028.23
2018-01-13T02:58:28.821Z,1028.23
2018-01-13T02:58:29.419Z,1028.25
2018-01-13T02:58:30.021Z,1028.24
2018-01-13T02:59:24.525Z,1028.25
2018-01-13T02:59:25.096Z,1028.22
2018-01-13T02:59:25.697Z,1028.20
2018-01-13T02:59:26.296Z,1028.24
2018-01-13T02:59:26.895Z,1028.22
2018-01-13T02:59:27.496Z,1028.21
2018-01-13T02:59:28.096Z,1028.21
2018-01-13T02:59:28.695Z,1028.20
2018-01-13T03:00:22.687Z,1028.23
2018-01-13T03:00:23.265Z,1028.22
2018-01-13T03:00:23.863Z,1028.20
2018-01-13T03:00:24.460Z,1028.20
2018-01-13T03:00:25.060Z,1028.17
2018-01-13T03:00:25.660Z,1028.20
2018-01-13T03:00:26.262Z,1028.19
2018-01-13T03:01:19.727Z,1028.21
2018-01-13T03:01:20.300Z,1028.23
2018-01-13T03:01:20.898Z,1028.23
2018-01-13T03:01:21.496Z,1028.19
2018-01-13T03:01:22.097Z,1028.20
2018-01-13T03:01:22.697Z,1028.23
2018-01-13T03:01:23.296Z,1028.20
2018-01-13T03:01:23.899Z,1028.22
2018-01-13T03:02:18.402Z,1028.22
2018-01-13T03:02:18.977Z,1028.22
2018-01-13T03:02:19.575Z,1028.22
2018-01-13T03:02:20.194Z,1028.24
2018-01-13T03:02:20.771Z,1028.21
2018-01-13T03:02:21.372Z,1028.20
2018-01-13T03:02:21.973Z,1028.22
2018-01-13T03:02:22.570Z,1028.19
2018-01-13T03:03:17.080Z,1028.20
2018-01-13T03:03:17.648Z,1028.20
2018-01-13T03:03:18.248Z,1028.16
2018-01-13T03:03:18.848Z,1028.18
2018-01-13T03:03:19.448Z,1028.20
2018-01-13T03:03:20.076Z,1028.23
2018-01-13T03:03:20.649Z,1028.20
2018-01-13T03:03:21.247Z,1028.22
2018-01-13T03:04:14.729Z,1028.21
2018-01-13T03:04:15.300Z,1028.19
2018-01-13T03:04:15.900Z,1028.21
2018-01-13T03:04:16.502Z,1028.20
2018-01-13T03:04:17.100Z,1028.21
2018-01-13T03:04:17.699Z,1028.22
2018-01-13T03:04:18.299Z,1028.23
2018-01-13T03:04:18.899Z,1028.24
2018-01-13T03:05:12.388Z,1028.21
2018-01-13T03:05:12.958Z,1028.20
2018-01-13T03:05:13.553Z,1028.22
2018-01-13T03:05:14.153Z,1028.25
2018-01-13T03:05:14.758Z,1028.20
2018-01-13T03:05:15.355Z,1028.20
2018-01-13T03:05:15.952Z,1028.17
2018-01-13T03:05:16.552Z,1028.19
2018-01-13T03:06:11.122Z,1028.21
2018-01-13T03:06:11.631Z,1028.19
2018-01-13T03:06:12.227Z,1028.19
2018-01-13T03:06:12.827Z,1028.17
2018-01-13T03:06:13.427Z,1028.20
2018-01-13T03:06:14.027Z,1028.21
2018-01-13T03:06:14.626Z,1028.22
2018-01-13T03:06:15.226Z,1028.20
2018-01-13T03:07:08.708Z,1028.17
2018-01-13T03:07:09.290Z,1028.19
2018-01-13T03:07:09.883Z,1028.20
2018-01-13T03:07:10.480Z,1028.17
2018-01-13T03:07:11.079Z,1028.16
2018-01-13T03:07:11.679Z,1028.16
2018-01-13T03:07:12.279Z,1028.20
2018-01-13T03:07:12.879Z,1028.23
2018-01-13T03:08:08.405Z,1028.19
2018-01-13T03:08:08.979Z,1028.23
2018-01-13T03:08:09.579Z,1028.22
2018-01-13T03:08:10.178Z,1028.24
2018-01-13T03:08:10.779Z,1028.20
2018-01-13T03:08:11.379Z,1028.20
2018-01-13T03:08:11.977Z,1028.21
2018-01-13T03:08:12.578Z,1028.19
2018-01-13T03:09:06.059Z,1028.18
2018-01-13T03:09:06.632Z,1028.18
2018-01-13T03:09:07.232Z,1028.16
2018-01-13T03:09:07.833Z,1028.16
2018-01-13T03:09:08.442Z,1028.18
2018-01-13T03:09:09.032Z,1028.21
2018-01-13T03:09:09.635Z,1028.21
2018-01-13T03:09:10.231Z,1028.21
2018-01-13T03:10:04.736Z,1028.15
2018-01-13T03:10:06.263Z,1028.17
2018-01-13T03:10:06.789Z,1028.16
2018-01-13T03:10:07.381Z,1028.18
2018-01-13T03:10:07.977Z,1028.19
2018-01-13T03:10:08.568Z,1028.16
2018-01-13T03:10:09.168Z,1028.15
2018-01-13T03:11:03.205Z,1028.18
2018-01-13T03:11:03.779Z,1028.18
2018-01-13T03:11:04.381Z,1028.15
2018-01-13T03:11:05.027Z,1028.15
2018-01-13T03:11:05.608Z,1028.16
2018-01-13T03:11:06.178Z,1028.18
2018-01-13T03:11:06.780Z,1028.13
2018-01-13T03:11:07.377Z,1028.15
2018-01-13T03:12:00.859Z,1028.21
2018-01-13T03:12:01.429Z,1028.18
2018-01-13T03:12:02.029Z,1028.19
2018-01-13T03:12:02.630Z,1028.20
2018-01-13T03:12:03.229Z,1028.21
2018-01-13T03:12:03.830Z,1028.23
2018-01-13T03:12:04.432Z,1028.21
2018-01-13T03:12:05.030Z,1028.15
2018-01-13T03:13:00.046Z,1028.23
2018-01-13T03:13:00.623Z,1028.19
2018-01-13T03:13:01.216Z,1028.19
2018-01-13T03:13:01.816Z,1028.23
2018-01-13T03:13:02.416Z,1028.22
2018-01-13T03:13:03.018Z,1028.23
2018-01-13T03:13:57.491Z,1028.25
2018-01-13T03:13:58.063Z,1028.22
2018-01-13T03:13:58.660Z,1028.19
2018-01-13T03:13:59.263Z,1028.24
2018-01-13T03:13:59.862Z,1028.24
2018-01-13T03:14:00.602Z,1028.25
2018-01-13T03:14:01.089Z,1028.24
2018-01-13T03:15:14.602Z,1028.15
2018-01-13T03:15:15.174Z,1028.23
2018-01-13T03:15:15.773Z,1028.20
2018-01-13T03:15:16.371Z,1028.22
2018-01-13T03:15:16.979Z,1028.22
2018-01-13T03:15:17.571Z,1028.22
2018-01-13T03:15:18.171Z,1028.18
2018-01-13T03:15:18.771Z,1028.20
2018-01-13T03:16:12.771Z,1028.23
2018-01-13T03:16:13.340Z,1028.20
2018-01-13T03:16:13.934Z,1028.17
2018-01-13T03:16:14.535Z,1028.18
2018-01-13T03:16:15.133Z,1028.21
2018-01-13T03:16:15.734Z,1028.15
2018-01-13T03:16:16.335Z,1028.21
2018-01-13T03:17:09.802Z,1028.18
2018-01-13T03:17:10.373Z,1028.19
2018-01-13T03:17:10.973Z,1028.23
2018-01-13T03:17:11.572Z,1028.22
2018-01-13T03:17:12.172Z,1028.21
2018-01-13T03:17:12.773Z,1028.21
2018-01-13T03:17:13.373Z,1028.21
2018-01-13T03:17:13.973Z,1028.22
2018-01-13T03:18:07.465Z,1028.22
2018-01-13T03:18:08.027Z,1028.22
2018-01-13T03:18:08.626Z,1028.24
2018-01-13T03:18:09.228Z,1028.19
2018-01-13T03:18:09.826Z,1028.19
2018-01-13T03:18:10.426Z,1028.20
2018-01-13T03:18:11.026Z,1028.21
2018-01-13T03:18:11.623Z,1028.22
2018-01-13T03:19:05.206Z,1028.26
2018-01-13T03:19:05.780Z,1028.21
2018-01-13T03:19:06.379Z,1028.22
2018-01-13T03:19:06.978Z,1028.22
2018-01-13T03:19:07.582Z,1028.25
2018-01-13T03:19:08.185Z,1028.24
2018-01-13T03:19:08.956Z,1028.23
2018-01-13T03:19:09.374Z,1028.26
2018-01-13T03:20:03.882Z,1028.28
2018-01-13T03:20:04.455Z,1028.24
2018-01-13T03:20:05.053Z,1028.27
2018-01-13T03:20:05.657Z,1028.28
2018-01-13T03:20:06.252Z,1028.23
2018-01-13T03:20:06.853Z,1028.24
2018-01-13T03:20:07.454Z,1028.23
2018-01-13T03:20:08.053Z,1028.25
2018-01-13T03:21:01.639Z,1028.22
2018-01-13T03:21:02.138Z,1028.25
2018-01-13T03:21:02.737Z,1028.20
2018-01-13T03:21:03.336Z,1028.26
2018-01-13T03:21:03.936Z,1028.22
2018-01-13T03:21:04.536Z,1028.20
2018-01-13T03:21:05.140Z,1028.23
2018-01-13T03:21:05.736Z,1028.23
2018-01-13T03:21:59.290Z,1028.24
2018-01-13T03:21:59.861Z,1028.26
2018-01-13T03:22:00.461Z,1028.24
2018-01-13T03:22:01.062Z,1028.27
2018-01-13T03:22:01.665Z,1028.25
2018-01-13T03:22:02.260Z,1028.22
2018-01-13T03:22:02.893Z,1028.23
2018-01-13T03:22:03.460Z,1028.25
2018-01-13T03:22:56.939Z,1028.26
2018-01-13T03:22:57.512Z,1028.25
2018-01-13T03:22:58.112Z,1028.26
2018-01-13T03:22:58.712Z,1028.24
2018-01-13T03:22:59.315Z,1028.25
2018-01-13T03:22:59.911Z,1028.25
2018-01-13T03:23:00.512Z,1028.20
2018-01-13T03:23:01.111Z,1028.22